Kota Waris — S6RJ — position and weather

sailwx.info

Track history (hours):
 
Tides and Currents Weather Stations Pressure Air Temp Water Temp Dewpoint Dewpoint Depression Visibility Wind Speed Wind Dir Waves Ship Positions

Kota Waris

Last reported at 2017-Apr-26 05:23 UTC. Time now 2017-Apr-29 03:46 UTC.
Position N 01°15' E 104°02'.

Length 185 m; draft 9.1 m.

Type: Cargo ship. MMSI: 564482000.

Date/timePositionNaut miles runAvg speedWind from/ knotsBaromVisibWave heightAir tempDewpointWater temp
2017-Apr-26 05:23N 01°15' E 104°02'615.3
2017-Apr-26 05:00N 01°14' E 103°56'4 8.0
2017-Apr-26 04:30N 01°14' E 103°52'2 4.3
2017-Apr-26 04:00N 01°16' E 103°51'0 0.0
2017-Apr-26 03:30N 01°16' E 103°51'0 0.0
2017-Apr-26 02:12N 01°16' E 103°51'0 0.0
2017-Apr-26 01:57N 01°16' E 103°51'0 0.0
2017-Apr-26 01:27N 01°16' E 103°51'0 0.0
2017-Apr-26 00:57N 01°16' E 103°51'0 0.0
2017-Apr-26 00:06N 01°16' E 103°51'0 0.0
2017-Apr-25 23:57N 01°16' E 103°51'0 0.0
2017-Apr-25 23:27N 01°16' E 103°51'0 0.0
2017-Apr-25 23:00N 01°16' E 103°51'0 0.0
2017-Apr-25 22:15N 01°15' E 103°51'0 0.0
2017-Apr-25 21:57N 01°16' E 103°51'0 0.0
2017-Apr-25 21:15N 01°16' E 103°51'0 0.0
2017-Apr-25 20:57N 01°16' E 103°51'0 0.0
2017-Apr-25 20:27N 01°16' E 103°51'0 0.0
2017-Apr-25 19:57N 01°16' E 103°51'0 0.0
2017-Apr-25 19:24N 01°16' E 103°51'0 0.0
2017-Apr-25 18:48N 01°16' E 103°51'0 0.0
2017-Apr-25 18:30N 01°16' E 103°51'0 0.0
2017-Apr-25 17:57N 01°16' E 103°51'0 0.0
2017-Apr-25 17:30N 01°16' E 103°51'0 0.0
2017-Apr-25 16:57N 01°16' E 103°51'0 0.0
2017-Apr-25 16:24N 01°16' E 103°51'0 0.0
2017-Apr-25 15:30N 01°15' E 103°51'0 0.0
2017-Apr-25 14:54N 01°16' E 103°51'0 0.0
2017-Apr-25 14:27N 01°16' E 103°51'0 0.0
2017-Apr-25 12:09N 01°16' E 103°51'0 0.0
2017-Apr-25 11:51N 01°16' E 103°51'0 0.0
2017-Apr-25 11:27N 01°16' E 103°51'0 0.0
2017-Apr-25 10:57N 01°16' E 103°51'0 0.0
2017-Apr-25 10:21N 01°16' E 103°51'0 0.0
2017-Apr-25 09:57N 01°16' E 103°51'0 0.0
2017-Apr-25 09:27N 01°16' E 103°51'0 0.0
2017-Apr-25 08:57N 01°16' E 103°51'0 0.0
2017-Apr-25 08:30N 01°16' E 103°51'0 0.0
2017-Apr-25 07:57N 01°16' E 103°51'0 0.0
2017-Apr-25 07:27N 01°16' E 103°51'0 0.0
2017-Apr-25 06:57N 01°16' E 103°51'0 0.0
2017-Apr-25 06:29N 01°16' E 103°51'2 3.7
2017-Apr-25 06:01N 01°15' E 103°52'3 5.1
2017-Apr-25 05:30N 01°14' E 103°55'1 2.3
2017-Apr-25 05:00N 01°14' E 103°55'2 4.0
2017-Apr-25 04:30N 01°15' E 103°57'2 3.6
2017-Apr-25 04:00N 01°15' E 103°59'2 4.0
2017-Apr-25 03:29N 01°16' E 104°01'22 5.8
2017-Apr-24 23:46N 01°21' E 104°22'2 7.2
2017-Apr-24 23:27N 01°22' E 104°24'  
2017-Apr-19 15:40N 01°15' E 104°03'214.7
2017-Apr-19 15:30N 01°14' E 104°01'814.8
2017-Apr-19 14:59N 01°12' E 103°53'5 9.5
2017-Apr-19 14:29N 01°12' E 103°49'6 5.7
2017-Apr-19 13:30N 01°17' E 103°46'0 0.0
2017-Apr-19 12:59N 01°17' E 103°46'0 0.0
2017-Apr-19 12:29N 01°17' E 103°46'0 0.0
2017-Apr-19 11:59N 01°17' E 103°46'0 0.0
2017-Apr-19 11:29N 01°17' E 103°46'0 0.0
2017-Apr-19 10:59N 01°17' E 103°46'0 0.0
2017-Apr-19 10:29N 01°17' E 103°46'0 0.0
2017-Apr-19 09:59N 01°17' E 103°46'0 0.0
2017-Apr-19 09:29N 01°17' E 103°46'0 0.0
2017-Apr-19 08:59N 01°17' E 103°46'0 0.0
2017-Apr-19 08:29N 01°17' E 103°46'0 0.0
2017-Apr-19 07:59N 01°17' E 103°46'0 0.0
2017-Apr-19 07:29N 01°17' E 103°46'0 0.0
2017-Apr-19 06:59N 01°17' E 103°46'0 0.0
2017-Apr-19 06:29N 01°17' E 103°46'0 0.0
2017-Apr-19 05:59N 01°17' E 103°46'0 0.0
2017-Apr-19 05:26N 01°17' E 103°46'0 0.0
2017-Apr-19 04:59N 01°17' E 103°46'0 0.0
2017-Apr-19 04:29N 01°17' E 103°46'0 0.0
2017-Apr-19 03:59N 01°17' E 103°46'0 0.0
2017-Apr-19 03:29N 01°17' E 103°46'0 0.0
2017-Apr-19 02:59N 01°17' E 103°46'0 0.0
2017-Apr-19 02:26N 01°17' E 103°46'0 0.0
2017-Apr-19 01:56N 01°17' E 103°46'0 0.0
2017-Apr-19 01:29N 01°17' E 103°46'0 0.0
2017-Apr-19 00:59N 01°17' E 103°46'0 0.0
2017-Apr-19 00:29N 01°17' E 103°46'0 0.0
2017-Apr-18 23:59N 01°17' E 103°46'0 0.0
2017-Apr-18 23:29N 01°17' E 103°46'0 0.0
2017-Apr-18 22:59N 01°17' E 103°46'0 0.0
2017-Apr-18 22:17N 01°17' E 103°46'0 0.0
2017-Apr-18 21:59N 01°17' E 103°46'0 0.0
2017-Apr-18 21:23N 01°17' E 103°46'0 0.0
2017-Apr-18 20:59N 01°17' E 103°46'0 0.0
2017-Apr-18 20:29N 01°17' E 103°46'0 0.0
2017-Apr-18 19:59N 01°17' E 103°46'0 0.0
2017-Apr-18 19:29N 01°17' E 103°46'0 0.0
2017-Apr-18 18:59N 01°17' E 103°46'0 0.0
2017-Apr-18 18:29N 01°17' E 103°46'0 0.0
2017-Apr-18 17:59N 01°17' E 103°46'0 0.0
2017-Apr-18 17:29N 01°17' E 103°46'0 0.0
2017-Apr-18 16:56N 01°17' E 103°46'0 0.0
2017-Apr-18 16:29N 01°17' E 103°46'0 0.0
2017-Apr-18 15:17N 01°17' E 103°46'0 0.0
2017-Apr-18 14:32N 01°17' E 103°46'0 0.0
2017-Apr-18 14:29N 01°17' E 103°46'0 0.0
2017-Apr-18 11:11N 01°17' E 103°46'0 0.0
2017-Apr-18 10:53N 01°17' E 103°46'0 0.0
2017-Apr-18 10:30N 01°17' E 103°46'1 2.2
2017-Apr-18 09:59N 01°17' E 103°45'3 6.7
2017-Apr-18 09:30N 01°14' E 103°47'510.9
2017-Apr-18 09:01N 01°13' E 103°52'4 8.7
2017-Apr-18 08:30N 01°14' E 103°56'4 7.6
2017-Apr-18 07:59N 01°15' E 103°60'  
Track history (hours):
 
Tides and Currents Weather Stations Pressure Air Temp Water Temp Dewpoint Dewpoint Depression Visibility Wind Speed Wind Dir Waves Ship Positions

Kota Waris

Last reported at 2017-Apr-26 05:23 UTC. Time now 2017-Apr-29 03:46 UTC.
Position N 01°15' E 104°02'.

Length 185 m; draft 9.1 m.

Type: Cargo ship. MMSI: 564482000.

Date/timePositionNaut miles runAvg speedWind from/ knotsBaromVisibWave heightAir tempDewpointWater temp
2017-Apr-26 05:23N 01°15' E 104°02'615.3
2017-Apr-26 05:00N 01°14' E 103°56'4 8.0
2017-Apr-26 04:30N 01°14' E 103°52'2 4.3
2017-Apr-26 04:00N 01°16' E 103°51'0 0.0
2017-Apr-26 03:30N 01°16' E 103°51'0 0.0
2017-Apr-26 02:12N 01°16' E 103°51'0 0.0
2017-Apr-26 01:57N 01°16' E 103°51'0 0.0
2017-Apr-26 01:27N 01°16' E 103°51'0 0.0
2017-Apr-26 00:57N 01°16' E 103°51'0 0.0
2017-Apr-26 00:06N 01°16' E 103°51'0 0.0
2017-Apr-25 23:57N 01°16' E 103°51'0 0.0
2017-Apr-25 23:27N 01°16' E 103°51'0 0.0
2017-Apr-25 23:00N 01°16' E 103°51'0 0.0
2017-Apr-25 22:15N 01°15' E 103°51'0 0.0
2017-Apr-25 21:57N 01°16' E 103°51'0 0.0
2017-Apr-25 21:15N 01°16' E 103°51'0 0.0
2017-Apr-25 20:57N 01°16' E 103°51'0 0.0
2017-Apr-25 20:27N 01°16' E 103°51'0 0.0
2017-Apr-25 19:57N 01°16' E 103°51'0 0.0
2017-Apr-25 19:24N 01°16' E 103°51'0 0.0
2017-Apr-25 18:48N 01°16' E 103°51'0 0.0
2017-Apr-25 18:30N 01°16' E 103°51'0 0.0
2017-Apr-25 17:57N 01°16' E 103°51'0 0.0
2017-Apr-25 17:30N 01°16' E 103°51'0 0.0
2017-Apr-25 16:57N 01°16' E 103°51'0 0.0
2017-Apr-25 16:24N 01°16' E 103°51'0 0.0
2017-Apr-25 15:30N 01°15' E 103°51'0 0.0
2017-Apr-25 14:54N 01°16' E 103°51'0 0.0
2017-Apr-25 14:27N 01°16' E 103°51'0 0.0
2017-Apr-25 12:09N 01°16' E 103°51'0 0.0
2017-Apr-25 11:51N 01°16' E 103°51'0 0.0
2017-Apr-25 11:27N 01°16' E 103°51'0 0.0
2017-Apr-25 10:57N 01°16' E 103°51'0 0.0
2017-Apr-25 10:21N 01°16' E 103°51'0 0.0
2017-Apr-25 09:57N 01°16' E 103°51'0 0.0
2017-Apr-25 09:27N 01°16' E 103°51'0 0.0
2017-Apr-25 08:57N 01°16' E 103°51'0 0.0
2017-Apr-25 08:30N 01°16' E 103°51'0 0.0
2017-Apr-25 07:57N 01°16' E 103°51'0 0.0
2017-Apr-25 07:27N 01°16' E 103°51'0 0.0
2017-Apr-25 06:57N 01°16' E 103°51'0 0.0
2017-Apr-25 06:29N 01°16' E 103°51'2 3.7
2017-Apr-25 06:01N 01°15' E 103°52'3 5.1
2017-Apr-25 05:30N 01°14' E 103°55'1 2.3
2017-Apr-25 05:00N 01°14' E 103°55'2 4.0
2017-Apr-25 04:30N 01°15' E 103°57'2 3.6
2017-Apr-25 04:00N 01°15' E 103°59'2 4.0
2017-Apr-25 03:29N 01°16' E 104°01'22 5.8
2017-Apr-24 23:46N 01°21' E 104°22'2 7.2
2017-Apr-24 23:27N 01°22' E 104°24'  
2017-Apr-19 15:40N 01°15' E 104°03'214.7
2017-Apr-19 15:30N 01°14' E 104°01'814.8
2017-Apr-19 14:59N 01°12' E 103°53'5 9.5
2017-Apr-19 14:29N 01°12' E 103°49'6 5.7
2017-Apr-19 13:30N 01°17' E 103°46'0 0.0
2017-Apr-19 12:59N 01°17' E 103°46'0 0.0
2017-Apr-19 12:29N 01°17' E 103°46'0 0.0
2017-Apr-19 11:59N 01°17' E 103°46'0 0.0
2017-Apr-19 11:29N 01°17' E 103°46'0 0.0
2017-Apr-19 10:59N 01°17' E 103°46'0 0.0
2017-Apr-19 10:29N 01°17' E 103°46'0 0.0
2017-Apr-19 09:59N 01°17' E 103°46'0 0.0
2017-Apr-19 09:29N 01°17' E 103°46'0 0.0
2017-Apr-19 08:59N 01°17' E 103°46'0 0.0
2017-Apr-19 08:29N 01°17' E 103°46'0 0.0
2017-Apr-19 07:59N 01°17' E 103°46'0 0.0
2017-Apr-19 07:29N 01°17' E 103°46'0 0.0
2017-Apr-19 06:59N 01°17' E 103°46'0 0.0
2017-Apr-19 06:29N 01°17' E 103°46'0 0.0
2017-Apr-19 05:59N 01°17' E 103°46'0 0.0
2017-Apr-19 05:26N 01°17' E 103°46'0 0.0
2017-Apr-19 04:59N 01°17' E 103°46'0 0.0
2017-Apr-19 04:29N 01°17' E 103°46'0 0.0
2017-Apr-19 03:59N 01°17' E 103°46'0 0.0
2017-Apr-19 03:29N 01°17' E 103°46'0 0.0
2017-Apr-19 02:59N 01°17' E 103°46'0 0.0
2017-Apr-19 02:26N 01°17' E 103°46'0 0.0
2017-Apr-19 01:56N 01°17' E 103°46'0 0.0
2017-Apr-19 01:29N 01°17' E 103°46'0 0.0
2017-Apr-19 00:59N 01°17' E 103°46'0 0.0
2017-Apr-19 00:29N 01°17' E 103°46'0 0.0
2017-Apr-18 23:59N 01°17' E 103°46'0 0.0
2017-Apr-18 23:29N 01°17' E 103°46'0 0.0
2017-Apr-18 22:59N 01°17' E 103°46'0 0.0
2017-Apr-18 22:17N 01°17' E 103°46'0 0.0
2017-Apr-18 21:59N 01°17' E 103°46'0 0.0
2017-Apr-18 21:23N 01°17' E 103°46'0 0.0
2017-Apr-18 20:59N 01°17' E 103°46'0 0.0
2017-Apr-18 20:29N 01°17' E 103°46'0 0.0
2017-Apr-18 19:59N 01°17' E 103°46'0 0.0
2017-Apr-18 19:29N 01°17' E 103°46'0 0.0
2017-Apr-18 18:59N 01°17' E 103°46'0 0.0
2017-Apr-18 18:29N 01°17' E 103°46'0 0.0
2017-Apr-18 17:59N 01°17' E 103°46'0 0.0
2017-Apr-18 17:29N 01°17' E 103°46'0 0.0
2017-Apr-18 16:56N 01°17' E 103°46'0 0.0
2017-Apr-18 16:29N 01°17' E 103°46'0 0.0
2017-Apr-18 15:17N 01°17' E 103°46'0 0.0
2017-Apr-18 14:32N 01°17' E 103°46'0 0.0
2017-Apr-18 14:29N 01°17' E 103°46'0 0.0
2017-Apr-18 11:11N 01°17' E 103°46'0 0.0
2017-Apr-18 10:53N 01°17' E 103°46'0 0.0
2017-Apr-18 10:30N 01°17' E 103°46'1 2.2
2017-Apr-18 09:59N 01°17' E 103°45'3 6.7
2017-Apr-18 09:30N 01°14' E 103°47'510.9
2017-Apr-18 09:01N 01°13' E 103°52'4 8.7
2017-Apr-18 08:30N 01°14' E 103°56'4 7.6
2017-Apr-18 07:59N 01°15' E 103°60'  

Dump ship's entire track history